createdAt,value
2022-10-09T00:01:03.412Z,3.70
2022-10-09T00:03:31.505Z,3.70
2022-10-09T00:06:00.005Z,3.70
2022-10-09T00:08:27.958Z,3.70
2022-10-09T00:10:55.975Z,3.70
2022-10-09T00:13:24.191Z,3.70
2022-10-09T00:15:53.479Z,3.60
2022-10-09T00:18:21.439Z,3.60
2022-10-09T00:20:49.395Z,3.60
2022-10-09T00:23:18.292Z,3.50
2022-10-09T00:25:53.999Z,3.50
2022-10-09T00:28:23.056Z,3.40
2022-10-09T00:30:51.331Z,3.40
2022-10-09T00:33:21.438Z,3.40
2022-10-09T00:35:49.402Z,3.40
2022-10-09T00:38:17.382Z,3.40
2022-10-09T00:40:45.346Z,3.40
2022-10-09T00:43:17.012Z,3.40
2022-10-09T00:45:49.622Z,3.40
2022-10-09T00:48:19.489Z,3.30
2022-10-09T00:50:53.567Z,3.30
2022-10-09T00:53:23.691Z,3.30
2022-10-09T00:55:52.309Z,3.30
2022-10-09T00:58:20.658Z,3.30
2022-10-09T01:00:48.998Z,3.20
2022-10-09T01:03:16.952Z,3.20
2022-10-09T01:05:56.351Z,3.20
2022-10-09T01:08:31.174Z,3.20
2022-10-09T01:11:05.209Z,3.10
2022-10-09T01:13:37.036Z,3.10
2022-10-09T01:16:11.742Z,3.10
2022-10-09T01:18:46.183Z,3.00
2022-10-09T01:21:20.617Z,3.00
2022-10-09T01:24:15.701Z,3.00
2022-10-09T01:27:05.708Z,3.00
2022-10-09T01:29:37.443Z,2.90
2022-10-09T01:32:08.703Z,2.90
2022-10-09T01:34:38.115Z,2.90
2022-10-09T01:37:07.621Z,2.90
2022-10-09T01:39:37.914Z,2.90
2022-10-09T01:42:07.531Z,2.90
2022-10-09T01:44:35.514Z,2.90
2022-10-09T01:47:04.530Z,2.90
2022-10-09T01:49:41.934Z,2.80
2022-10-09T01:52:26.713Z,2.80
2022-10-09T01:55:09.163Z,2.80
2022-10-09T01:57:44.749Z,2.80
2022-10-09T02:00:14.121Z,2.70
2022-10-09T02:02:43.865Z,2.60
2022-10-09T02:05:16.055Z,2.60
2022-10-09T02:07:44.401Z,2.60
2022-10-09T02:10:13.602Z,2.70
2022-10-09T02:12:48.812Z,2.60
2022-10-09T02:15:17.166Z,2.60
2022-10-09T02:17:48.439Z,2.70
2022-10-09T02:20:23.391Z,2.70
2022-10-09T02:22:52.343Z,2.70
2022-10-09T02:25:20.996Z,2.70
2022-10-09T02:27:50.386Z,2.70
2022-10-09T02:30:21.010Z,2.70
2022-10-09T02:32:53.352Z,2.60
2022-10-09T02:35:21.678Z,2.60
2022-10-09T02:37:49.652Z,2.60
2022-10-09T02:40:17.799Z,2.60
2022-10-09T02:42:45.876Z,2.60
2022-10-09T02:45:15.438Z,2.50
2022-10-09T02:47:43.405Z,2.50
2022-10-09T02:50:11.450Z,2.50
2022-10-09T02:52:39.573Z,2.60
2022-10-09T02:55:08.040Z,2.60
2022-10-09T02:57:35.981Z,2.60
2022-10-09T03:00:04.345Z,2.50
2022-10-09T03:02:34.772Z,2.60
2022-10-09T03:05:02.839Z,2.60
2022-10-09T03:07:30.900Z,2.60
2022-10-09T03:09:58.841Z,2.60
2022-10-09T03:12:26.794Z,2.60
2022-10-09T03:14:54.736Z,2.60
2022-10-09T03:17:22.715Z,2.60
2022-10-09T03:19:51.999Z,2.60
2022-10-09T03:22:19.935Z,2.60
2022-10-09T03:24:47.888Z,2.60
2022-10-09T03:27:15.857Z,2.60
2022-10-09T03:29:43.827Z,2.60
2022-10-09T03:32:11.816Z,2.60
2022-10-09T03:34:39.799Z,2.70
2022-10-09T03:37:09.134Z,2.70
2022-10-09T03:39:37.109Z,2.70
2022-10-09T03:42:05.353Z,2.70
2022-10-09T03:44:33.815Z,2.70
2022-10-09T03:47:01.890Z,2.60
2022-10-09T03:49:29.927Z,2.70
2022-10-09T03:51:57.879Z,2.70
2022-10-09T03:54:27.166Z,2.70
2022-10-09T03:56:55.130Z,2.70
2022-10-09T03:59:23.430Z,2.70
2022-10-09T04:01:51.635Z,2.80
2022-10-09T04:04:19.698Z,2.80
2022-10-09T04:06:47.692Z,2.90
2022-10-09T04:09:15.615Z,3.00
2022-10-09T04:11:45.217Z,3.00
2022-10-09T04:14:13.325Z,3.10
2022-10-09T04:16:41.311Z,3.10
2022-10-09T04:19:09.570Z,3.20
2022-10-09T04:21:37.526Z,3.30
2022-10-09T04:24:08.341Z,3.40
2022-10-09T04:26:36.399Z,3.40
2022-10-09T04:29:05.774Z,3.50
2022-10-09T04:31:34.051Z,3.60
2022-10-09T04:34:02.289Z,3.80
2022-10-09T04:36:30.253Z,3.80
2022-10-09T04:38:58.186Z,3.90
2022-10-09T04:41:26.157Z,4.00
2022-10-09T04:43:56.101Z,4.10
2022-10-09T04:46:25.469Z,4.10
2022-10-09T04:48:53.418Z,4.20
2022-10-09T04:51:21.423Z,4.30
2022-10-09T04:53:49.578Z,4.30
2022-10-09T04:56:19.582Z,4.40
2022-10-09T04:58:48.411Z,4.40
2022-10-09T05:01:17.827Z,4.40
2022-10-09T05:03:49.341Z,4.40
2022-10-09T05:06:17.916Z,4.40
2022-10-09T05:08:46.198Z,4.40
2022-10-09T05:11:16.394Z,4.50
2022-10-09T05:13:47.283Z,4.50
2022-10-09T05:16:17.153Z,4.50
2022-10-09T05:18:46.478Z,4.40
2022-10-09T05:21:16.471Z,4.40
2022-10-09T05:23:44.505Z,4.40
2022-10-09T05:26:14.454Z,4.50
2022-10-09T05:28:42.685Z,4.60
2022-10-09T05:31:17.818Z,4.60
2022-10-09T05:33:45.975Z,4.60
2022-10-09T05:36:15.402Z,4.60
2022-10-09T05:38:43.383Z,4.60
2022-10-09T05:41:14.007Z,4.60
2022-10-09T05:43:43.415Z,4.60
2022-10-09T05:46:13.447Z,4.60
2022-10-09T05:48:43.619Z,4.60
2022-10-09T05:51:16.159Z,4.60
2022-10-09T05:53:45.789Z,4.60
2022-10-09T05:56:15.505Z,4.60
2022-10-09T05:58:44.798Z,4.60
2022-10-09T06:01:12.829Z,4.60
2022-10-09T06:03:41.301Z,4.60
2022-10-09T06:06:09.763Z,4.60
2022-10-09T06:08:39.737Z,4.60
2022-10-09T06:11:12.823Z,4.60
2022-10-09T06:13:40.985Z,4.60
2022-10-09T06:16:11.369Z,4.60
2022-10-09T06:18:39.662Z,4.60
2022-10-09T06:21:08.181Z,4.50
2022-10-09T06:23:36.815Z,4.60
2022-10-09T06:26:09.147Z,4.50
2022-10-09T06:28:37.850Z,4.50
2022-10-09T06:31:08.210Z,4.50
2022-10-09T06:33:38.145Z,4.60
2022-10-09T06:36:10.302Z,4.60
2022-10-09T06:38:39.601Z,4.60
2022-10-09T06:41:10.461Z,4.70
2022-10-09T06:43:38.399Z,4.80
2022-10-09T06:46:08.164Z,4.80
2022-10-09T06:48:37.389Z,5.00
2022-10-09T06:51:07.071Z,5.00
2022-10-09T06:53:35.888Z,5.10
2022-10-09T06:56:04.458Z,5.10
2022-10-09T06:58:33.866Z,5.20
2022-10-09T07:01:06.761Z,5.20
2022-10-09T07:03:34.803Z,5.20
2022-10-09T07:06:13.957Z,5.30
2022-10-09T07:08:43.606Z,5.30
2022-10-09T07:11:13.141Z,5.40
2022-10-09T07:13:44.061Z,5.40
2022-10-09T07:16:12.666Z,5.50
2022-10-09T07:18:41.040Z,5.50
2022-10-09T07:21:09.969Z,5.50
2022-10-09T07:23:38.086Z,5.60
2022-10-09T07:26:12.200Z,5.60
2022-10-09T07:28:42.601Z,5.70
2022-10-09T07:31:11.678Z,5.70
2022-10-09T07:33:41.534Z,5.80
2022-10-09T07:36:11.711Z,5.90
2022-10-09T07:38:39.705Z,5.90
2022-10-09T07:41:09.561Z,6.00
2022-10-09T07:43:38.443Z,6.00
2022-10-09T07:46:09.664Z,6.10
2022-10-09T07:48:37.954Z,6.20
2022-10-09T07:51:11.477Z,6.20
2022-10-09T07:53:39.686Z,6.30
2022-10-09T07:56:08.263Z,6.40
2022-10-09T07:58:36.250Z,6.50
2022-10-09T08:01:07.845Z,6.60
2022-10-09T08:03:36.195Z,6.70
2022-10-09T08:06:04.790Z,6.80
2022-10-09T08:08:32.849Z,6.90
2022-10-09T08:11:01.232Z,7.00
2022-10-09T08:13:29.192Z,7.10
2022-10-09T08:16:00.498Z,7.10
2022-10-09T08:18:29.839Z,7.30
2022-10-09T08:20:59.526Z,7.40
2022-10-09T08:23:27.629Z,7.40
2022-10-09T08:25:55.621Z,7.50
2022-10-09T08:28:24.080Z,7.50
2022-10-09T08:30:52.300Z,7.60
2022-10-09T08:33:22.015Z,7.60
2022-10-09T08:35:51.799Z,7.70
2022-10-09T08:38:44.922Z,7.80
2022-10-09T08:41:13.189Z,7.80
2022-10-09T08:43:45.075Z,7.90
2022-10-09T08:46:21.173Z,8.00
2022-10-09T08:48:50.525Z,8.20
2022-10-09T08:51:26.866Z,8.40
2022-10-09T08:53:59.937Z,8.50
2022-10-09T08:56:29.859Z,8.70
2022-10-09T08:58:57.954Z,8.90
2022-10-09T09:01:32.598Z,9.00
2022-10-09T09:04:25.667Z,9.20
2022-10-09T09:07:03.926Z,9.30
2022-10-09T09:09:41.372Z,9.30
2022-10-09T09:12:17.074Z,9.40
2022-10-09T09:14:56.579Z,9.60
2022-10-09T09:17:38.471Z,9.80
2022-10-09T09:20:14.198Z,10.20
2022-10-09T09:22:48.408Z,10.60
2022-10-09T09:25:21.978Z,11.00
2022-10-09T09:27:50.705Z,11.30
2022-10-09T09:30:24.010Z,11.50
2022-10-09T09:33:00.307Z,11.80
2022-10-09T09:35:35.155Z,12.10
2022-10-09T09:38:04.493Z,12.30
2022-10-09T09:40:40.602Z,12.50
2022-10-09T09:43:17.058Z,12.70
2022-10-09T09:45:45.819Z,12.90
2022-10-09T09:48:18.335Z,13.10
2022-10-09T09:50:53.159Z,13.30
2022-10-09T09:53:38.553Z,13.60
2022-10-09T09:56:07.154Z,13.80
2022-10-09T09:58:37.720Z,13.90
2022-10-09T10:01:07.683Z,14.10
2022-10-09T10:03:36.929Z,14.30
2022-10-09T10:06:05.427Z,14.50
2022-10-09T10:08:35.871Z,14.70
2022-10-09T10:11:07.885Z,14.90
2022-10-09T10:13:38.934Z,15.00
2022-10-09T10:16:08.792Z,15.20
2022-10-09T10:18:41.074Z,15.40
2022-10-09T10:21:12.427Z,15.50
2022-10-09T10:23:44.739Z,15.70
2022-10-09T10:26:27.712Z,15.80
2022-10-09T10:29:02.867Z,16.00
2022-10-09T10:31:42.624Z,16.20
2022-10-09T10:34:17.847Z,16.30
2022-10-09T10:36:47.245Z,16.50
2022-10-09T10:39:26.146Z,16.50
2022-10-09T10:41:58.248Z,16.70
2022-10-09T10:44:38.850Z,16.80
2022-10-09T10:47:12.994Z,17.00
2022-10-09T10:49:41.123Z,17.20
2022-10-09T10:52:21.227Z,17.30
2022-10-09T10:54:58.773Z,17.40
2022-10-09T10:57:33.019Z,17.40
2022-10-09T11:00:06.272Z,17.50
2022-10-09T11:03:08.359Z,17.60
2022-10-09T11:05:42.484Z,17.60
2022-10-09T11:08:25.454Z,17.70
2022-10-09T11:11:01.911Z,17.60
2022-10-09T11:13:33.253Z,17.80
2022-10-09T11:16:16.582Z,17.90
2022-10-09T11:19:02.477Z,18.00
2022-10-09T11:21:44.343Z,18.00
2022-10-09T11:24:33.666Z,18.20
2022-10-09T11:27:11.193Z,18.40
2022-10-09T11:29:44.382Z,18.50
2022-10-09T11:32:18.302Z,18.70
2022-10-09T11:34:52.881Z,18.80
2022-10-09T11:37:26.365Z,18.90
2022-10-09T11:39:54.591Z,19.00
2022-10-09T11:42:26.462Z,19.20
2022-10-09T11:45:10.166Z,19.30
2022-10-09T11:47:45.945Z,19.50
2022-10-09T11:50:36.903Z,19.70
2022-10-09T11:53:09.996Z,19.80
2022-10-09T11:55:38.426Z,19.70
2022-10-09T11:58:21.050Z,19.70
2022-10-09T12:00:51.221Z,19.50
2022-10-09T12:03:33.646Z,19.80
2022-10-09T12:06:07.979Z,19.50
2022-10-09T12:08:37.391Z,18.80
2022-10-09T12:11:14.849Z,18.70
2022-10-09T12:13:49.198Z,18.80
2022-10-09T12:16:39.009Z,19.30
2022-10-09T12:19:16.231Z,19.40
2022-10-09T12:21:50.233Z,19.50
2022-10-09T12:24:20.698Z,19.80
2022-10-09T12:26:49.888Z,20.10
2022-10-09T12:29:26.823Z,20.70
2022-10-09T12:31:59.388Z,21.10
2022-10-09T12:34:32.030Z,21.30
2022-10-09T12:37:14.617Z,21.60
2022-10-09T12:39:43.037Z,21.70
2022-10-09T12:42:17.830Z,21.70
2022-10-09T12:44:49.106Z,21.10
2022-10-09T12:47:22.858Z,21.70
2022-10-09T12:49:59.529Z,21.50
2022-10-09T12:52:28.352Z,21.40
2022-10-09T12:54:56.723Z,21.10
2022-10-09T12:57:27.864Z,21.00
2022-10-09T12:59:58.244Z,21.20
2022-10-09T13:02:26.551Z,21.60
2022-10-09T13:05:02.085Z,21.60
2022-10-09T13:07:32.494Z,21.50
2022-10-09T13:10:07.982Z,22.00
2022-10-09T13:12:36.646Z,22.50
2022-10-09T13:15:24.547Z,23.00
2022-10-09T13:17:52.730Z,23.00
2022-10-09T13:20:27.284Z,22.50
2022-10-09T13:22:56.548Z,22.90
2022-10-09T13:25:25.238Z,23.10
2022-10-09T13:27:53.526Z,22.70
2022-10-09T13:30:23.588Z,22.60
2022-10-09T13:32:51.785Z,22.80
2022-10-09T13:35:19.915Z,22.90
2022-10-09T13:37:48.391Z,23.00
2022-10-09T13:40:20.446Z,23.30
2022-10-09T13:42:53.376Z,23.20
2022-10-09T13:45:23.797Z,22.10
2022-10-09T13:47:53.322Z,22.20
2022-10-09T13:50:21.726Z,21.40
2022-10-09T13:52:49.976Z,21.20
2022-10-09T13:55:18.787Z,21.00
2022-10-09T13:57:47.975Z,20.80
2022-10-09T14:00:16.567Z,20.80
2022-10-09T14:02:46.050Z,20.40
2022-10-09T14:05:14.377Z,20.10
2022-10-09T14:07:42.512Z,20.10
2022-10-09T14:10:11.252Z,20.00
2022-10-09T14:12:39.389Z,20.00
2022-10-09T14:15:08.544Z,19.90
2022-10-09T14:17:36.682Z,19.90
2022-10-09T14:20:07.207Z,19.60
2022-10-09T14:22:35.534Z,19.50
2022-10-09T14:25:04.130Z,19.50
2022-10-09T14:27:32.288Z,19.50
2022-10-09T14:30:00.379Z,19.50
2022-10-09T14:32:28.818Z,19.30
2022-10-09T14:34:56.937Z,19.20
2022-10-09T14:37:42.491Z,19.00
2022-10-09T14:40:12.217Z,18.90
2022-10-09T14:42:40.981Z,18.80
2022-10-09T14:45:10.635Z,18.70
2022-10-09T14:47:38.755Z,18.60
2022-10-09T14:50:07.867Z,18.50
2022-10-09T14:52:37.423Z,18.40
2022-10-09T14:55:06.434Z,18.20
2022-10-09T14:57:35.545Z,18.20
2022-10-09T15:00:05.942Z,18.20
2022-10-09T15:02:34.102Z,18.20
2022-10-09T15:05:02.300Z,18.20
2022-10-09T15:07:31.826Z,18.20
2022-10-09T15:10:01.466Z,18.10
2022-10-09T15:12:29.722Z,18.10
2022-10-09T15:14:57.841Z,18.00
2022-10-09T15:17:26.052Z,18.00
2022-10-09T15:19:55.144Z,18.00
2022-10-09T15:22:23.235Z,18.00
2022-10-09T15:24:51.365Z,18.00
2022-10-09T15:27:20.929Z,18.00
2022-10-09T15:29:49.019Z,18.10
2022-10-09T15:32:17.208Z,18.10
2022-10-09T15:34:45.308Z,18.10
2022-10-09T15:37:13.390Z,18.10
2022-10-09T15:39:41.876Z,18.10
2022-10-09T15:42:10.014Z,18.10
2022-10-09T15:44:39.496Z,17.90
2022-10-09T15:47:07.653Z,17.90
2022-10-09T15:49:35.884Z,17.80
2022-10-09T15:52:04.058Z,17.70
2022-10-09T15:54:32.147Z,17.60
2022-10-09T15:57:00.298Z,17.40
2022-10-09T15:59:30.013Z,17.30
2022-10-09T16:01:59.599Z,17.20
2022-10-09T16:04:28.873Z,17.00
2022-10-09T16:06:58.030Z,16.80
2022-10-09T16:09:26.221Z,16.60
2022-10-09T16:11:54.379Z,16.50
2022-10-09T16:14:22.515Z,16.30
2022-10-09T16:16:51.436Z,16.10
2022-10-09T16:19:20.962Z,15.80
2022-10-09T16:21:50.140Z,15.60
2022-10-09T16:24:18.512Z,15.30
2022-10-09T16:26:46.718Z,15.10
2022-10-09T16:29:14.903Z,14.90
2022-10-09T16:31:43.180Z,14.80
2022-10-09T16:34:11.288Z,14.50
2022-10-09T16:36:40.883Z,14.30
2022-10-09T16:39:10.439Z,14.10
2022-10-09T16:41:41.943Z,13.80
2022-10-09T16:44:13.734Z,13.60
2022-10-09T16:46:41.919Z,13.40
2022-10-09T16:49:19.891Z,13.30
2022-10-09T16:51:52.556Z,13.20
2022-10-09T16:54:20.721Z,13.00
2022-10-09T16:56:48.929Z,12.70
2022-10-09T16:59:17.025Z,12.50
2022-10-09T17:01:46.465Z,12.20
2022-10-09T17:04:14.838Z,12.00
2022-10-09T17:06:43.791Z,11.80
2022-10-09T17:09:14.538Z,11.60
2022-10-09T17:11:44.152Z,11.60
2022-10-09T17:14:12.828Z,11.50
2022-10-09T17:16:42.933Z,11.30
2022-10-09T17:19:11.115Z,11.10
2022-10-09T17:21:39.254Z,11.00
2022-10-09T17:24:08.532Z,10.80
2022-10-09T17:26:38.014Z,10.60
2022-10-09T17:29:07.176Z,10.40
2022-10-09T17:31:35.723Z,10.40
2022-10-09T17:34:05.894Z,10.40
2022-10-09T17:36:36.818Z,10.30
2022-10-09T17:39:06.706Z,10.20
2022-10-09T17:41:35.726Z,10.10
2022-10-09T17:44:05.968Z,10.10
2022-10-09T17:46:34.177Z,10.00
2022-10-09T17:49:02.343Z,10.00
2022-10-09T17:51:33.506Z,9.90
2022-10-09T17:54:05.863Z,9.80
2022-10-09T17:56:36.331Z,9.80
2022-10-09T17:59:06.021Z,9.80
2022-10-09T18:01:34.760Z,9.70
2022-10-09T18:04:03.281Z,9.60
2022-10-09T18:06:33.010Z,9.50
2022-10-09T18:09:01.567Z,9.50
2022-10-09T18:11:30.140Z,9.40
2022-10-09T18:13:58.844Z,9.30
2022-10-09T18:16:35.705Z,9.30
2022-10-09T18:19:05.837Z,9.20
2022-10-09T18:21:34.251Z,9.20
2022-10-09T18:24:02.640Z,9.10
2022-10-09T18:26:30.667Z,9.00
2022-10-09T18:28:59.985Z,8.90
2022-10-09T18:31:30.031Z,8.80
2022-10-09T18:33:59.266Z,8.70
2022-10-09T18:36:31.461Z,8.60
2022-10-09T18:39:02.348Z,8.60
2022-10-09T18:41:30.530Z,8.50
2022-10-09T18:44:00.022Z,8.50
2022-10-09T18:46:34.313Z,8.40
2022-10-09T18:49:02.728Z,8.40
2022-10-09T18:51:31.685Z,8.40
2022-10-09T18:54:03.703Z,8.30
2022-10-09T18:56:33.773Z,8.30
2022-10-09T18:59:04.549Z,8.20
2022-10-09T19:01:34.281Z,8.10
2022-10-09T19:04:02.281Z,8.00
2022-10-09T19:06:30.487Z,8.00
2022-10-09T19:09:00.690Z,7.90
2022-10-09T19:11:29.291Z,7.80
2022-10-09T19:13:59.585Z,7.80
2022-10-09T19:16:27.942Z,7.80
2022-10-09T19:18:57.290Z,7.70
2022-10-09T19:21:25.931Z,7.70
2022-10-09T19:23:55.051Z,7.60
2022-10-09T19:26:23.757Z,7.60
2022-10-09T19:28:51.879Z,7.60
2022-10-09T19:31:20.053Z,7.50
2022-10-09T19:33:48.095Z,7.50
2022-10-09T19:36:17.746Z,7.40
2022-10-09T19:38:46.450Z,7.40
2022-10-09T19:41:16.805Z,7.40
2022-10-09T19:43:44.983Z,7.30
2022-10-09T19:46:17.059Z,7.30
2022-10-09T19:48:45.717Z,7.30
2022-10-09T19:51:15.728Z,7.30
2022-10-09T19:53:45.626Z,7.20
2022-10-09T19:56:16.131Z,7.20
2022-10-09T19:58:45.928Z,7.20
2022-10-09T20:01:15.198Z,7.20
2022-10-09T20:03:44.049Z,7.10
2022-10-09T20:06:12.427Z,7.10
2022-10-09T20:08:42.273Z,7.00
2022-10-09T20:11:13.683Z,7.00
2022-10-09T20:13:43.625Z,6.90
2022-10-09T20:16:14.025Z,6.80
2022-10-09T20:18:42.754Z,6.70
2022-10-09T20:21:11.319Z,6.80
2022-10-09T20:23:39.678Z,6.80
2022-10-09T20:26:09.498Z,6.80
2022-10-09T20:28:39.794Z,6.70
2022-10-09T20:31:09.705Z,6.70
2022-10-09T20:33:39.595Z,6.70
2022-10-09T20:36:08.927Z,6.60
2022-10-09T20:38:36.930Z,6.50
2022-10-09T20:41:07.343Z,6.50
2022-10-09T20:43:35.586Z,6.40
2022-10-09T20:46:08.124Z,6.40
2022-10-09T20:48:36.429Z,6.40
2022-10-09T20:51:05.046Z,6.40
2022-10-09T20:53:33.257Z,6.30
2022-10-09T20:56:01.842Z,6.30
2022-10-09T20:58:30.615Z,6.30
2022-10-09T21:00:58.661Z,6.20
2022-10-09T21:03:27.994Z,6.20
2022-10-09T21:05:56.035Z,6.10
2022-10-09T21:08:24.057Z,6.10
2022-10-09T21:10:51.994Z,6.10
2022-10-09T21:13:19.969Z,6.10
2022-10-09T21:15:50.166Z,6.10
2022-10-09T21:18:20.127Z,6.00
2022-10-09T21:20:49.780Z,6.00
2022-10-09T21:23:19.552Z,6.00
2022-10-09T21:25:48.851Z,6.00
2022-10-09T21:28:17.419Z,6.00
2022-10-09T21:30:45.417Z,6.00
2022-10-09T21:33:13.627Z,5.90
2022-10-09T21:35:42.663Z,5.80
2022-10-09T21:38:14.263Z,5.80
2022-10-09T21:40:43.068Z,5.80
2022-10-09T21:43:11.505Z,5.80
2022-10-09T21:45:40.239Z,5.80
2022-10-09T21:48:09.047Z,5.80
2022-10-09T21:50:37.853Z,5.80
2022-10-09T21:53:05.800Z,5.70
2022-10-09T21:55:35.286Z,5.70
2022-10-09T21:58:03.199Z,5.70
2022-10-09T22:00:31.315Z,5.70
2022-10-09T22:02:59.323Z,5.60
2022-10-09T22:05:27.334Z,5.60
2022-10-09T22:07:55.277Z,5.60
2022-10-09T22:10:23.258Z,5.70
2022-10-09T22:12:52.951Z,5.60
2022-10-09T22:15:21.067Z,5.60
2022-10-09T22:17:49.078Z,5.60
2022-10-09T22:20:17.189Z,5.60
2022-10-09T22:22:45.122Z,5.50
2022-10-09T22:25:13.106Z,5.50
2022-10-09T22:27:41.069Z,5.50
2022-10-09T22:30:12.130Z,5.50
2022-10-09T22:32:40.084Z,5.40
2022-10-09T22:35:08.566Z,5.40
2022-10-09T22:37:36.512Z,5.30
2022-10-09T22:40:04.885Z,5.30
2022-10-09T22:42:32.845Z,5.30
2022-10-09T22:45:00.769Z,5.20
2022-10-09T22:47:30.051Z,5.20
2022-10-09T22:49:58.289Z,5.20
2022-10-09T22:52:26.284Z,5.20
2022-10-09T22:54:54.239Z,5.20
2022-10-09T22:57:22.241Z,5.10
2022-10-09T22:59:50.216Z,5.10
2022-10-09T23:02:18.166Z,5.10
2022-10-09T23:04:47.468Z,5.00
2022-10-09T23:07:15.452Z,5.00
2022-10-09T23:09:43.640Z,5.00
2022-10-09T23:12:11.611Z,5.10
2022-10-09T23:14:39.602Z,5.00
2022-10-09T23:17:07.525Z,5.10
2022-10-09T23:19:35.469Z,5.10
2022-10-09T23:22:04.839Z,5.10
2022-10-09T23:24:32.796Z,5.10
2022-10-09T23:27:00.738Z,5.10
2022-10-09T23:29:28.726Z,5.10
2022-10-09T23:31:56.698Z,5.10
2022-10-09T23:34:24.686Z,5.10
2022-10-09T23:36:52.639Z,5.10
2022-10-09T23:39:22.045Z,5.00
2022-10-09T23:41:50.225Z,5.00
2022-10-09T23:44:22.004Z,5.00
2022-10-09T23:46:50.393Z,4.90
2022-10-09T23:49:18.515Z,4.90
2022-10-09T23:51:47.712Z,4.90
2022-10-09T23:54:15.702Z,4.80
2022-10-09T23:56:44.978Z,4.70
2022-10-09T23:59:13.302Z,4.70
